Good Hart, MI (49737)

7:16 AM EDT on August 05, 2015 (GMT -0400)
Boyne Highlands Resort | | Change Station
CLOSE
Current Station
Personal Weather Station
Location: Harbor Springs, MI
Elevation: 787 ft
Nearby Weather Stations

Elev 787 ft 45.47 °N, 84.94 °W | Updated 1 second ago

Partly Cloudy
Partly Cloudy
52.0 °F
Feels Like 52.0 °F
N
0.0
Wind Variable Wind from East
Gusts 2.0 mph

Today
High -- | Low -- °F
--% Chance of Precip.
Yesterday
High -- | Low -- °F
Precip. -- in
6:28 AM 9:03 PM
Waning Gibbous, 68% visible
Pressure 30.05 in
Visibility 10.0 miles
Clouds Clear
Dew Point 50 °F
Humidity 94%
Rainfall 0.00 in
Snow Depth Not available.
UV 0 out of 12
Pollen 6.70 out of 12
Air Quality Not available.
Flu Activity Not available.
METAR KMGN 051054Z AUTO 33003KT 10SM CLR 12/11 A3005 RMK AO2 T01250110

More Conditions Fewer Conditions

Pressure 30.05 in
Visibility 10.0 miles
Clouds Clear
Dew Point 50 °F
Humidity 94%
Rainfall 0.00 in
Snow Depth Not available.
UV 0 out of 12
Pollen 6.70 out of 12
Air Quality Not available.
Flu Activity Not available.
METAR KMGN 051054Z AUTO 33003KT 10SM CLR 12/11 A3005 RMK AO2 T01250110

More Conditions Fewer Conditions

Nowcast | as of 7:00 am EDT on August 5, 2015

At 8 am...mostly clear. Temperature 54. Light winds. At 10 am...mostly clear. Temperature 60. Northwest winds 7 mph. At 12 PM...partly cloudy. Temperature 65. Northwest winds 9 mph. At 2 PM...mostly clear. Temperature 68. West winds 11 mph.

×

10-Day Weather Forecast

×

Almanac

Astronomy

Aug. 05, 2015 Rise Set
Actual Time
Civil Twilight
Nautical Twilight
Astronomical Twilight
Moon
Length of Visible Light
Length of Day
Tomorrow will be .
, % of the Moon is Illuminated

Today's Extremes

State Highs State Lows

Community

WunderPhotos

Upload Photos

1,844,125 photos uploaded!

WunderBlogs® & News

Nearby

Air Quality

  Air Quality AQ Index Pollutant
Not available.

Snow Depth

Station Depth Elevation

Earthquake Activity

City Distance Mag. Time & Date
Minimum magnitude displayed is 2.5.

Coastal Water Temperatures

Place Temperature

Stations

Nearby Weather Stations

Station Location Temp. Windchill Dew Point Humidity Wind Precip. Elev Updated Type